15°C Temp
12°C Dewpoint
82% Humidity
Temperature
8 KM/H
5 MPH
4 KTS
240°
West South
West

Wind Speed
Overcast
Conditions
Pressure 1014.92 (hPa) - 29.97 (in)
Visibility 6.2 (mi) - 10.0 (km)

Current Conditions
EKCH
Location 55(km)
Metar :EKCH 142350Z AUTO 24004KT 9999 OVC022/// 15/12 Q1015 NOSIG
Mon 15th July 01:50 am

Airport
  Metar Aviation API Data Provided by https://www.checkwx.com/ PHP scripts by weather34.com ©2019